Time;durP1;ratioP1;P1;durP2;ratioP2;P2;SDS_P1;SDS_P2;PMS_P1;PMS_P2;Temp;Humidity;BMP_temperature;BMP_pressure;BME280_temperature;BME280_humidity;BME280_pressure;Samples;Min_cycle;Max_cycle;Signal;HPM_P1;HPM_P2
2023/07/20 00:02:05;;;;;;;2.27;1.50;;;25.90;44.40;;;;;;4938164;29;20996;-47
2023/07/20 00:04:35;;;;;;;1.83;1.73;;;26.00;44.60;;;;;;4939446;29;20455;-46
2023/07/20 00:07:04;;;;;;;1.60;1.40;;;25.90;44.40;;;;;;4946152;28;20482;-47
2023/07/20 00:09:33;;;;;;;1.40;1.30;;;25.90;44.50;;;;;;4940581;28;20469;-47
2023/07/20 00:12:01;;;;;;;1.50;1.40;;;26.00;44.50;;;;;;4954619;28;20481;-46
2023/07/20 00:14:31;;;;;;;1.80;1.70;;;25.90;44.50;;;;;;4950438;28;20517;-45
2023/07/20 00:17:00;;;;;;;2.23;1.80;;;25.90;44.50;;;;;;4955571;28;20510;-45
2023/07/20 00:19:29;;;;;;;1.50;1.40;;;25.90;44.50;;;;;;4946441;28;20529;-46
2023/07/20 00:21:59;;;;;;;1.70;1.60;;;25.90;44.60;;;;;;4955134;28;20920;-46
2023/07/20 00:24:28;;;;;;;1.87;1.63;;;25.90;44.50;;;;;;4944933;28;20822;-46
2023/07/20 00:26:56;;;;;;;1.70;1.53;;;25.90;44.60;;;;;;4956079;28;20467;-47
2023/07/20 00:29:25;;;;;;;1.83;1.63;;;25.90;44.60;;;;;;4947171;28;20447;-46
2023/07/20 00:31:53;;;;;;;1.53;1.43;;;25.90;44.60;;;;;;4956624;28;20462;-47
2023/07/20 00:34:24;;;;;;;1.77;1.67;;;25.90;44.70;;;;;;4933541;29;20451;-47
2023/07/20 00:36:54;;;;;;;1.77;1.67;;;25.90;44.80;;;;;;4943869;28;20505;-46
2023/07/20 00:39:25;;;;;;;2.00;1.47;;;25.90;44.80;;;;;;4939188;28;20439;-46
2023/07/20 00:41:54;;;;;;;1.97;1.70;;;25.90;44.80;;;;;;4954968;28;20833;-47
2023/07/20 00:44:22;;;;;;;1.60;1.50;;;25.90;44.80;;;;;;4957898;28;20541;-45
2023/07/20 00:46:51;;;;;;;1.83;1.73;;;25.90;44.70;;;;;;4939009;29;20585;-46
2023/07/20 00:49:21;;;;;;;1.70;1.60;;;25.90;44.90;;;;;;4950092;28;20458;-47
2023/07/20 00:51:51;;;;;;;2.00;1.60;;;25.90;44.90;;;;;;4924443;29;20467;-46
2023/07/20 00:54:20;;;;;;;1.73;1.63;;;25.90;45.00;;;;;;4930112;29;20442;-46
2023/07/20 00:56:51;;;;;;;3.10;1.70;;;25.80;44.90;;;;;;4954082;28;20965;-46
2023/07/20 00:59:20;;;;;;;2.03;1.63;;;25.80;45.00;;;;;;4957610;28;20574;-46
2023/07/20 01:01:53;;;;;;;2.70;1.57;;;25.80;45.00;;;;;;4936122;29;20485;-48
2023/07/20 01:04:22;;;;;;;1.97;1.87;;;25.80;44.90;;;;;;4951815;28;20449;-46
2023/07/20 01:06:59;;;;;;;1.93;1.50;;;25.80;45.00;;;;;;4948439;28;20464;-46
2023/07/20 01:09:33;;;;;;;1.97;1.77;;;25.80;44.90;;;;;;4936288;29;20442;-47
2023/07/20 01:12:08;;;;;;;3.00;1.87;;;25.80;44.90;;;;;;4956693;28;20462;-44
2023/07/20 01:14:38;;;;;;;1.50;1.40;;;25.80;45.00;;;;;;4953310;28;20465;-47
2023/07/20 01:17:07;;;;;;;1.97;1.77;;;25.80;45.10;;;;;;4952586;28;20454;-45
2023/07/20 01:19:35;;;;;;;2.20;2.00;;;25.80;45.10;;;;;;4937911;29;20448;-45
2023/07/20 01:22:16;;;;;;;2.00;1.63;;;25.80;45.10;;;;;;4952177;28;20522;-46
2023/07/20 01:25:03;;;;;;;1.60;1.50;;;25.80;45.10;;;;;;4955551;28;20497;-46
2023/07/20 01:28:12;;;;;;;1.77;1.67;;;25.80;45.10;;;;;;4956356;28;20457;-46
2023/07/20 01:30:51;;;;;;;1.60;1.50;;;25.80;45.10;;;;;;4903864;29;20478;-46
2023/07/20 01:33:22;;;;;;;2.77;1.60;;;25.80;45.10;;;;;;4950843;28;20447;-46
2023/07/20 01:35:56;;;;;;;1.70;1.40;;;25.80;45.10;;;;;;4947844;28;20482;-47
2023/07/20 01:38:25;;;;;;;2.00;1.90;;;25.80;45.10;;;;;;4956107;28;20439;-47
2023/07/20 01:40:54;;;;;;;1.67;1.53;;;25.70;45.10;;;;;;4942244;28;20481;-46
2023/07/20 01:43:23;;;;;;;1.87;1.70;;;25.80;45.20;;;;;;4959589;28;20442;-46
2023/07/20 01:45:51;;;;;;;1.57;1.47;;;25.80;45.10;;;;;;4936946;28;20484;-46
2023/07/20 01:48:21;;;;;;;2.30;1.60;;;25.70;45.20;;;;;;4939212;29;20529;-46
2023/07/20 01:50:50;;;;;;;2.00;1.63;;;25.70;45.20;;;;;;4957331;28;20574;-46
2023/07/20 01:53:19;;;;;;;2.00;1.87;;;25.70;46.40;;;;;;4957103;28;20461;-47
2023/07/20 01:55:49;;;;;;;1.60;1.43;;;25.70;45.20;;;;;;4958548;28;20486;-46
2023/07/20 01:58:17;;;;;;;2.10;1.90;;;25.70;45.20;;;;;;4949991;28;20521;-46
2023/07/20 02:00:46;;;;;;;3.20;2.07;;;25.70;45.20;;;;;;4949289;28;20493;-46
2023/07/20 02:03:15;;;;;;;2.17;1.40;;;25.70;45.30;;;;;;4941684;29;20520;-45
2023/07/20 02:05:45;;;;;;;2.30;1.50;;;25.70;45.30;;;;;;4941047;28;20497;-46
2023/07/20 02:08:14;;;;;;;1.70;1.60;;;25.70;45.30;;;;;;4939982;29;20513;-47
2023/07/20 02:10:42;;;;;;;1.60;1.50;;;25.70;45.30;;;;;;4940087;28;20908;-47
2023/07/20 02:13:11;;;;;;;1.50;1.40;;;25.70;45.30;;;;;;4935700;29;20580;-48
2023/07/20 02:15:40;;;;;;;1.70;1.60;;;25.70;45.40;;;;;;4948701;28;20570;-48
2023/07/20 02:18:09;;;;;;;2.37;1.70;;;25.70;45.40;;;;;;4955878;28;20551;-46
2023/07/20 02:20:38;;;;;;;1.10;1.00;;;25.70;45.40;;;;;;4936748;29;20991;-46
2023/07/20 02:23:08;;;;;;;1.43;1.33;;;25.70;45.30;;;;;;4938340;29;20893;-45
2023/07/20 02:25:37;;;;;;;1.53;1.43;;;25.70;45.30;;;;;;4954061;28;20490;-46
2023/07/20 02:28:08;;;;;;;2.60;1.70;;;25.70;45.40;;;;;;4954740;28;20463;-45
2023/07/20 02:30:40;;;;;;;1.93;1.50;;;25.70;45.30;;;;;;4933642;28;20485;-46
2023/07/20 02:33:09;;;;;;;1.87;1.70;;;25.70;45.40;;;;;;4957055;28;20446;-46
2023/07/20 02:35:37;;;;;;;1.67;1.57;;;25.70;45.50;;;;;;4942732;28;20489;-46
2023/07/20 02:38:08;;;;;;;1.83;1.70;;;25.70;45.40;;;;;;4939057;29;20810;-45
2023/07/20 02:40:36;;;;;;;1.50;1.40;;;25.70;45.40;;;;;;4952003;28;20476;-47
2023/07/20 02:43:05;;;;;;;1.57;1.47;;;25.60;45.40;;;;;;4953416;28;20476;-46
2023/07/20 02:45:34;;;;;;;1.40;1.30;;;25.60;45.30;;;;;;4949214;28;20568;-47
2023/07/20 02:48:07;;;;;;;2.43;1.63;;;25.60;45.40;;;;;;4935427;29;20453;-47
2023/07/20 02:50:36;;;;;;;2.87;1.43;;;25.60;45.40;;;;;;4939014;28;20483;-46
2023/07/20 02:53:06;;;;;;;1.37;1.20;;;25.60;45.40;;;;;;4937786;29;20546;-46
2023/07/20 02:55:35;;;;;;;1.70;1.50;;;25.60;45.40;;;;;;4939434;28;21005;-45
2023/07/20 02:58:04;;;;;;;1.80;1.40;;;25.60;45.50;;;;;;4952444;28;21033;-47
2023/07/20 03:00:33;;;;;;;2.27;1.17;;;25.60;45.40;;;;;;4933578;28;20467;-45
2023/07/20 03:03:02;;;;;;;2.00;1.27;;;25.60;45.50;;;;;;4932103;29;21097;-46
2023/07/20 03:05:31;;;;;;;1.40;1.30;;;25.60;45.40;;;;;;4939165;29;20466;-47
2023/07/20 03:08:02;;;;;;;1.40;1.30;;;25.60;45.40;;;;;;4937560;29;20510;-46
2023/07/20 03:10:32;;;;;;;1.80;1.40;;;25.50;45.40;;;;;;4948474;28;21169;-45
2023/07/20 03:13:01;;;;;;;1.53;1.43;;;25.60;45.60;;;;;;4949044;28;20440;-47
2023/07/20 03:15:31;;;;;;;1.70;1.60;;;25.60;45.60;;;;;;4953075;28;20453;-45
2023/07/20 03:18:00;;;;;;;1.67;1.57;;;25.50;45.50;;;;;;4943140;29;20441;-46
2023/07/20 03:20:29;;;;;;;1.40;1.30;;;25.50;45.60;;;;;;4956707;28;20887;-47
2023/07/20 03:22:58;;;;;;;1.80;1.47;;;25.50;45.60;;;;;;4954356;28;20508;-46
2023/07/20 03:25:27;;;;;;;2.30;1.47;;;25.50;45.60;;;;;;4934543;28;20992;-46
2023/07/20 03:27:57;;;;;;;1.67;1.57;;;25.50;45.50;;;;;;4946880;28;20438;-47
2023/07/20 03:30:27;;;;;;;2.20;1.47;;;25.50;45.70;;;;;;4941780;29;20442;-46
2023/07/20 03:32:55;;;;;;;1.90;1.73;;;25.50;45.70;;;;;;4952522;28;20489;-47
2023/07/20 03:35:24;;;;;;;4.20;1.70;;;25.50;45.70;;;;;;4958851;28;20478;-46
2023/07/20 03:37:53;;;;;;;1.50;1.40;;;25.50;45.60;;;;;;4950872;28;20427;-46
2023/07/20 03:40:23;;;;;;;1.57;1.47;;;25.50;45.60;;;;;;4948280;28;21162;-46
2023/07/20 03:42:53;;;;;;;2.13;1.40;;;25.50;45.60;;;;;;4932100;29;20464;-47
2023/07/20 03:45:23;;;;;;;2.27;2.00;;;25.50;45.80;;;;;;4956263;28;20460;-46
2023/07/20 03:47:53;;;;;;;1.53;1.40;;;25.40;46.80;;;;;;4939530;29;20450;-45
2023/07/20 03:50:22;;;;;;;1.40;1.30;;;25.40;45.60;;;;;;4955613;28;20989;-46
2023/07/20 03:52:50;;;;;;;2.30;1.80;;;25.40;45.60;;;;;;4937337;29;20449;-44
2023/07/20 03:55:19;;;;;;;1.40;1.30;;;25.40;45.60;;;;;;4928539;28;20883;-47
2023/07/20 03:57:50;;;;;;;1.57;1.40;;;25.40;45.60;;;;;;4953431;28;20463;-46
2023/07/20 04:00:19;;;;;;;1.70;1.40;;;25.40;45.60;;;;;;4954880;28;20485;-46
2023/07/20 04:02:49;;;;;;;2.10;1.83;;;25.40;45.60;;;;;;4937712;28;20514;-46
2023/07/20 04:05:22;;;;;;;1.47;1.30;;;25.40;45.60;;;;;;4939891;28;20516;-46
2023/07/20 04:07:51;;;;;;;2.80;1.73;;;25.40;45.60;;;;;;4930133;28;20445;-45
2023/07/20 04:10:20;;;;;;;1.97;1.87;;;25.40;46.90;;;;;;4938949;28;20568;-46
2023/07/20 04:12:53;;;;;;;2.00;1.57;;;25.40;45.80;;;;;;4953452;28;20528;-46
2023/07/20 04:15:21;;;;;;;1.90;1.47;;;25.40;45.70;;;;;;4963558;28;20474;-47
2023/07/20 04:17:51;;;;;;;1.93;1.30;;;25.40;45.70;;;;;;4940391;29;20450;-47
2023/07/20 04:20:21;;;;;;;1.70;1.30;;;25.40;45.80;;;;;;4953102;28;20490;-46
2023/07/20 04:22:49;;;;;;;1.20;1.10;;;25.40;45.70;;;;;;4936563;29;20478;-47
2023/07/20 04:25:19;;;;;;;3.97;1.50;;;25.40;45.70;;;;;;4934457;29;20468;-46
2023/07/20 04:27:48;;;;;;;1.53;1.43;;;25.40;45.70;;;;;;4958218;28;20969;-45
2023/07/20 04:30:20;;;;;;;1.97;1.77;;;25.40;45.80;;;;;;4932325;29;20881;-44
2023/07/20 04:32:48;;;;;;;2.57;2.03;;;25.40;45.80;;;;;;4936241;29;20459;-47
2023/07/20 04:35:46;;;;;;;2.00;1.57;;;25.40;45.80;;;;;;4943194;28;20517;-44
2023/07/20 04:38:18;;;;;;;1.43;1.33;;;25.30;45.60;;;;;;4953193;28;20454;-45
2023/07/20 04:40:51;;;;;;;1.90;1.70;;;25.30;45.80;;;;;;4952380;28;20550;-44
2023/07/20 04:43:20;;;;;;;2.60;1.90;;;25.30;45.70;;;;;;4945696;29;20466;-45
2023/07/20 04:45:50;;;;;;;1.67;1.57;;;25.30;45.80;;;;;;4944463;28;20477;-45
2023/07/20 04:48:18;;;;;;;1.50;1.40;;;25.30;45.80;;;;;;4955399;28;20439;-45
2023/07/20 04:50:55;;;;;;;2.50;1.47;;;25.30;45.70;;;;;;4949295;28;20504;-53
2023/07/20 04:53:25;;;;;;;1.87;1.40;;;25.30;45.70;;;;;;4938762;29;20453;-47
2023/07/20 04:55:55;;;;;;;2.20;1.70;;;25.30;45.90;;;;;;4950100;28;20572;-45
2023/07/20 04:58:25;;;;;;;1.53;1.43;;;25.30;45.90;;;;;;4939632;29;20453;-45
2023/07/20 05:00:55;;;;;;;2.23;1.20;;;25.30;45.90;;;;;;4951139;28;20521;-47
2023/07/20 05:03:24;;;;;;;1.60;1.27;;;25.30;45.90;;;;;;4954252;28;20851;-47
2023/07/20 05:05:58;;;;;;;1.93;1.63;;;25.30;45.90;;;;;;4934906;28;20488;-45
2023/07/20 05:08:27;;;;;;;3.00;2.10;;;25.30;45.90;;;;;;4948018;28;20440;-46
2023/07/20 05:10:56;;;;;;;2.80;1.70;;;25.30;45.90;;;;;;4938059;28;20931;-46
2023/07/20 05:13:25;;;;;;;1.87;1.77;;;25.20;45.90;;;;;;4947368;29;20532;-45
2023/07/20 05:15:54;;;;;;;2.50;1.80;;;25.20;47.20;;;;;;4956945;28;21051;-46
2023/07/20 05:18:24;;;;;;;1.63;1.43;;;25.20;45.90;;;;;;4951252;28;20881;-46
2023/07/20 05:20:54;;;;;;;1.67;1.57;;;25.20;46.00;;;;;;4949996;28;20564;-46
2023/07/20 05:23:26;;;;;;;4.43;1.97;;;25.20;46.10;;;;;;4930783;29;20994;-47
2023/07/20 05:25:59;;;;;;;1.77;1.40;;;25.20;46.00;;;;;;4958479;28;20790;-47
2023/07/20 05:28:28;;;;;;;1.73;1.40;;;25.20;46.00;;;;;;4955009;28;20480;-47
2023/07/20 05:30:59;;;;;;;1.40;1.27;;;25.20;46.10;;;;;;4950014;28;20496;-45
2023/07/20 05:33:28;;;;;;;2.53;1.57;;;25.20;46.00;;;;;;4936217;29;20446;-46
2023/07/20 05:35:56;;;;;;;2.43;1.40;;;25.20;46.00;;;;;;4934496;28;20487;-46
2023/07/20 05:38:27;;;;;;;2.13;1.70;;;25.20;46.00;;;;;;4939088;29;20440;-46
2023/07/20 05:41:01;;;;;;;1.90;1.80;;;25.20;46.10;;;;;;4937158;28;21015;-47
2023/07/20 05:43:29;;;;;;;1.67;1.57;;;25.20;46.10;;;;;;4960880;28;20473;-45
2023/07/20 05:45:58;;;;;;;1.93;1.57;;;25.20;46.10;;;;;;4941230;28;20472;-47
2023/07/20 05:48:27;;;;;;;2.17;1.97;;;25.20;46.20;;;;;;4953563;28;20458;-47
2023/07/20 05:50:56;;;;;;;2.50;1.67;;;25.20;46.20;;;;;;4946748;28;20882;-47
2023/07/20 05:53:25;;;;;;;1.50;1.40;;;25.20;46.20;;;;;;4952946;28;20543;-45
2023/07/20 05:55:57;;;;;;;4.03;1.83;;;25.20;46.20;;;;;;4926189;29;20457;-47
2023/07/20 05:58:25;;;;;;;4.07;2.23;;;25.20;46.20;;;;;;4944198;29;20785;-47
2023/07/20 06:00:54;;;;;;;3.33;2.30;;;25.10;47.20;;;;;;4932325;28;20469;-47
2023/07/20 06:03:23;;;;;;;1.77;1.57;;;25.20;46.20;;;;;;4939857;29;21007;-45
2023/07/20 06:05:53;;;;;;;1.60;1.50;;;25.10;46.10;;;;;;4927519;29;20480;-45
2023/07/20 06:08:22;;;;;;;1.73;1.63;;;25.10;46.00;;;;;;4935292;29;20901;-47
2023/07/20 06:10:52;;;;;;;1.33;1.23;;;25.10;46.20;;;;;;4934584;28;20490;-46
2023/07/20 06:13:21;;;;;;;2.67;1.73;;;25.10;46.00;;;;;;4941471;28;20448;-47
2023/07/20 06:15:50;;;;;;;2.07;1.53;;;25.10;47.30;;;;;;4943398;28;20487;-46
2023/07/20 06:18:20;;;;;;;2.17;1.93;;;25.10;46.10;;;;;;4936395;29;20824;-47
2023/07/20 06:20:52;;;;;;;2.50;1.87;;;25.10;47.40;;;;;;4939423;28;20953;-47
2023/07/20 06:23:21;;;;;;;2.40;2.20;;;25.10;46.20;;;;;;4934641;29;21504;-46
2023/07/20 06:25:49;;;;;;;1.63;1.50;;;25.10;46.20;;;;;;4943041;29;20475;-46
2023/07/20 06:28:19;;;;;;;2.33;1.90;;;25.10;46.20;;;;;;4920118;29;21011;-45
2023/07/20 06:30:48;;;;;;;2.70;2.30;;;25.10;46.30;;;;;;4938712;28;20492;-47
2023/07/20 06:33:17;;;;;;;2.10;1.90;;;25.10;46.20;;;;;;4930381;29;20903;-46
2023/07/20 06:35:45;;;;;;;2.20;1.50;;;25.10;46.20;;;;;;4933089;28;21026;-45
2023/07/20 06:38:14;;;;;;;1.80;1.70;;;25.10;46.20;;;;;;4937804;29;20915;-46
2023/07/20 06:40:47;;;;;;;1.70;1.40;;;25.10;47.50;;;;;;4938253;28;20481;-44
2023/07/20 06:43:16;;;;;;;1.63;1.50;;;25.10;46.30;;;;;;4913817;29;20903;-44
2023/07/20 06:45:54;;;;;;;1.90;1.80;;;25.10;46.30;;;;;;4915903;29;20478;-44
2023/07/20 06:48:23;;;;;;;1.63;1.33;;;25.00;46.20;;;;;;4929006;29;20456;-48
2023/07/20 06:50:51;;;;;;;2.20;1.60;;;25.00;46.30;;;;;;4939857;28;20485;-46
2023/07/20 06:53:20;;;;;;;1.93;1.30;;;25.00;46.20;;;;;;4928710;29;20463;-46
2023/07/20 06:55:49;;;;;;;1.63;1.53;;;25.00;46.30;;;;;;4937533;29;20466;-45
2023/07/20 06:58:17;;;;;;;1.63;1.53;;;25.00;46.20;;;;;;4939224;29;20544;-44
2023/07/20 07:00:46;;;;;;;2.03;1.83;;;25.00;46.30;;;;;;4914348;29;20496;-45
2023/07/20 07:03:16;;;;;;;1.93;1.73;;;25.00;46.40;;;;;;4933039;29;20450;-46
2023/07/20 07:05:45;;;;;;;2.90;1.87;;;25.00;46.30;;;;;;4946577;28;21011;-47
2023/07/20 07:08:18;;;;;;;1.90;1.80;;;25.00;46.30;;;;;;4919679;29;20449;-47
2023/07/20 07:10:49;;;;;;;2.97;2.30;;;25.00;46.30;;;;;;4933259;29;20490;-45
2023/07/20 07:13:18;;;;;;;1.90;1.70;;;25.00;46.40;;;;;;4937157;29;20449;-44
2023/07/20 07:15:49;;;;;;;3.03;2.83;;;25.00;46.30;;;;;;4941491;28;20893;-46
2023/07/20 07:36:03;;;;;;;3.30;3.00;;;24.90;46.30;;;;;;4936252;28;20848;-46
2023/07/20 07:43:10;;;;;;;2.17;1.80;;;24.90;46.40;;;;;;4936586;28;20430;-46
2023/07/20 07:45:39;;;;;;;1.87;1.67;;;24.90;46.30;;;;;;4954278;28;20482;-44
2023/07/20 07:48:08;;;;;;;2.40;2.20;;;24.90;46.20;;;;;;4945949;29;20517;-47
2023/07/20 07:50:37;;;;;;;4.73;4.27;;;24.90;46.10;;;;;;4938944;28;20492;-43
2023/07/20 07:53:07;;;;;;;5.70;3.90;;;25.00;45.80;;;;;;4949277;28;20474;-46
2023/07/20 07:55:36;;;;;;;4.10;3.10;;;24.80;46.00;;;;;;4945884;28;20237;-45
2023/07/20 07:58:05;;;;;;;4.07;2.87;;;24.70;46.10;;;;;;4935940;29;20511;-44
2023/07/20 08:00:33;;;;;;;5.17;2.80;;;24.70;46.20;;;;;;4947724;28;20485;-45
2023/07/20 08:03:01;;;;;;;4.83;3.00;;;24.70;46.00;;;;;;4966552;28;20453;-46
2023/07/20 08:05:30;;;;;;;4.00;2.70;;;24.70;46.00;;;;;;4945859;28;20483;-45
2023/07/20 08:07:58;;;;;;;2.97;2.63;;;24.70;45.90;;;;;;4936891;29;20496;-44
2023/07/20 08:10:28;;;;;;;5.30;3.40;;;24.70;46.00;;;;;;4942823;28;20531;-46
2023/07/20 08:12:57;;;;;;;2.80;2.60;;;24.70;46.10;;;;;;4931514;29;20462;-46
2023/07/20 08:15:26;;;;;;;2.90;2.40;;;24.70;46.00;;;;;;4928045;29;20473;-47
2023/07/20 08:17:54;;;;;;;5.07;3.33;;;24.70;46.00;;;;;;4960552;28;20512;-46
2023/07/20 08:20:26;;;;;;;3.80;2.80;;;24.70;46.00;;;;;;4955424;28;20454;-47
2023/07/20 08:22:56;;;;;;;5.03;3.40;;;24.70;46.20;;;;;;4954332;28;20475;-46
2023/07/20 08:25:24;;;;;;;3.40;2.70;;;24.70;46.00;;;;;;4944577;28;20475;-47
2023/07/20 08:27:54;;;;;;;3.43;2.50;;;24.70;46.00;;;;;;4918216;29;20451;-44
2023/07/20 08:30:23;;;;;;;3.13;2.30;;;24.70;45.80;;;;;;4948883;28;20449;-46
2023/07/20 08:32:51;;;;;;;4.10;2.50;;;24.70;45.40;;;;;;4922333;29;20988;-46
2023/07/20 08:35:20;;;;;;;3.20;2.00;;;24.60;45.30;;;;;;4926543;29;20479;-46
2023/07/20 08:37:50;;;;;;;4.83;2.80;;;24.60;45.10;;;;;;4939856;29;20478;-46
2023/07/20 08:40:19;;;;;;;2.90;2.30;;;24.60;45.40;;;;;;4934586;29;20443;-46
2023/07/20 08:42:47;;;;;;;2.93;2.57;;;24.60;45.20;;;;;;4932667;29;20977;-45
2023/07/20 08:45:19;;;;;;;3.33;2.50;;;24.60;45.10;;;;;;4935153;29;20956;-45
2023/07/20 08:47:49;;;;;;;2.67;2.47;;;24.60;44.80;;;;;;4932082;29;20447;-46
2023/07/20 08:50:18;;;;;;;2.80;2.13;;;24.70;45.10;;;;;;4932297;29;20453;-46
2023/07/20 08:52:47;;;;;;;5.50;2.30;;;24.60;44.80;;;;;;4932558;29;20467;-46
2023/07/20 08:55:16;;;;;;;3.90;2.60;;;24.60;44.70;;;;;;4926194;29;20565;-45
2023/07/20 08:57:47;;;;;;;2.80;2.60;;;24.60;44.60;;;;;;4912016;29;20949;-43
2023/07/20 09:00:18;;;;;;;3.00;2.30;;;24.60;44.60;;;;;;4931760;29;20456;-44
2023/07/20 09:02:47;;;;;;;3.03;2.40;;;24.60;44.60;;;;;;4931136;29;20839;-44
2023/07/20 09:05:16;;;;;;;4.27;2.17;;;24.50;44.80;;;;;;4916362;29;20493;-46
2023/07/20 09:07:45;;;;;;;2.90;2.20;;;24.60;44.80;;;;;;4912849;29;20456;-46
2023/07/20 09:10:14;;;;;;;3.70;2.97;;;24.60;44.60;;;;;;4915527;29;20488;-47
2023/07/20 09:12:43;;;;;;;3.40;2.23;;;24.60;44.50;;;;;;4929549;29;20821;-47
2023/07/20 09:15:13;;;;;;;5.40;2.50;;;24.60;44.50;;;;;;4930661;29;20433;-45
2023/07/20 09:17:47;;;;;;;2.27;2.07;;;24.60;44.40;;;;;;4931839;29;20519;-47
2023/07/20 09:20:18;;;;;;;1.90;1.80;;;24.60;44.30;;;;;;4916103;29;20518;-46
2023/07/20 09:22:52;;;;;;;3.23;2.80;;;24.60;44.30;;;;;;4932021;29;20441;-47
2023/07/20 09:25:22;;;;;;;3.70;2.50;;;24.60;44.30;;;;;;4924158;29;20539;-48
2023/07/20 09:27:53;;;;;;;2.67;2.17;;;24.60;44.30;;;;;;4928067;29;20437;-44
2023/07/20 09:30:26;;;;;;;4.20;1.73;;;24.60;44.20;;;;;;4925745;29;20832;-47
2023/07/20 09:32:59;;;;;;;2.50;2.27;;;24.60;44.40;;;;;;4917709;29;20450;-46
2023/07/20 09:35:28;;;;;;;2.50;2.30;;;24.60;44.30;;;;;;4913852;29;20482;-46
2023/07/20 09:38:10;;;;;;;2.57;2.37;;;24.60;44.20;;;;;;4929813;29;20446;-47
2023/07/20 09:40:42;;;;;;;3.57;2.30;;;24.60;44.10;;;;;;4931521;28;20519;-46
2023/07/20 09:43:14;;;;;;;3.00;2.17;;;24.60;44.20;;;;;;4929761;29;21000;-47
2023/07/20 09:45:45;;;;;;;1.97;1.87;;;24.60;44.10;;;;;;4931478;29;20485;-47
2023/07/20 09:48:22;;;;;;;2.03;1.90;;;24.60;44.20;;;;;;4917606;29;20455;-45
2023/07/20 09:50:55;;;;;;;2.47;2.27;;;24.60;44.00;;;;;;4911654;29;20490;-45
2023/07/20 09:53:26;;;;;;;1.97;1.80;;;24.60;44.20;;;;;;4931024;29;20471;-46
2023/07/20 09:55:55;;;;;;;2.73;2.10;;;24.60;44.30;;;;;;4925111;29;20468;-46
2023/07/20 09:58:24;;;;;;;2.00;1.80;;;24.60;44.10;;;;;;4926059;29;20446;-48
2023/07/20 10:00:56;;;;;;;2.20;1.67;;;24.60;43.90;;;;;;4935543;29;20465;-47
2023/07/20 10:03:30;;;;;;;1.80;1.70;;;24.60;44.10;;;;;;4927100;29;20489;-45
2023/07/20 10:06:08;;;;;;;2.60;2.40;;;24.60;44.00;;;;;;4931316;28;20474;-46
2023/07/20 10:08:41;;;;;;;2.20;2.00;;;24.60;44.80;;;;;;4930903;29;20484;-46
2023/07/20 10:11:16;;;;;;;2.07;1.90;;;24.60;43.80;;;;;;4932110;28;20479;-45
2023/07/20 10:13:46;;;;;;;2.80;2.23;;;24.60;43.70;;;;;;4927826;29;20800;-46
2023/07/20 10:16:22;;;;;;;2.33;2.13;;;24.60;43.60;;;;;;4939119;28;20494;-46
2023/07/20 10:19:04;;;;;;;3.03;2.00;;;24.60;43.40;;;;;;4934857;29;20475;-46
2023/07/20 10:21:34;;;;;;;2.77;1.67;;;24.60;43.50;;;;;;4926621;29;20494;-47
2023/07/20 10:24:07;;;;;;;1.93;1.73;;;24.60;43.60;;;;;;4945544;29;20499;-47
2023/07/20 10:26:35;;;;;;;2.30;2.00;;;24.60;43.50;;;;;;4926849;29;20567;-46
2023/07/20 10:29:08;;;;;;;2.07;1.97;;;24.60;43.50;;;;;;4929034;29;20455;-44
2023/07/20 10:31:37;;;;;;;3.00;2.37;;;24.60;43.50;;;;;;4943892;28;20883;-47
2023/07/20 10:34:07;;;;;;;2.60;2.30;;;24.60;43.40;;;;;;4949851;28;20458;-47
2023/07/20 10:36:46;;;;;;;3.40;2.07;;;24.60;43.40;;;;;;4948712;28;20464;-46
2023/07/20 10:39:24;;;;;;;2.60;1.80;;;24.60;43.40;;;;;;4944414;28;20535;-47
2023/07/20 10:42:01;;;;;;;2.00;1.57;;;24.60;43.40;;;;;;4941532;28;20474;-47
2023/07/20 10:44:31;;;;;;;2.30;1.80;;;24.60;43.50;;;;;;4943483;28;20478;-46
2023/07/20 10:47:05;;;;;;;2.20;2.00;;;24.60;43.50;;;;;;4927355;29;20471;-45
2023/07/20 10:49:36;;;;;;;2.30;2.07;;;24.60;43.50;;;;;;4939453;28;20987;-45
2023/07/20 10:52:07;;;;;;;2.00;1.90;;;24.60;43.70;;;;;;4934033;29;20463;-47
2023/07/20 10:54:52;;;;;;;2.80;2.27;;;24.60;43.40;;;;;;4942043;29;20463;-46
2023/07/20 10:57:33;;;;;;;2.30;1.90;;;24.60;43.50;;;;;;4924852;29;20507;-45
2023/07/20 11:00:13;;;;;;;4.87;2.03;;;24.60;43.50;;;;;;4923589;29;21002;-45
2023/07/20 11:02:49;;;;;;;1.53;1.40;;;24.60;43.50;;;;;;4944813;28;20521;-46
2023/07/20 11:05:37;;;;;;;2.70;2.40;;;24.50;43.50;;;;;;4948557;28;20555;-47
2023/07/20 11:08:10;;;;;;;2.10;1.90;;;24.60;43.70;;;;;;4927375;29;20445;-46
2023/07/20 11:10:38;;;;;;;4.00;2.20;;;24.50;43.20;;;;;;4932806;28;20811;-46
2023/07/20 11:13:28;;;;;;;2.30;1.97;;;24.50;43.50;;;;;;4939580;29;21030;-46
2023/07/20 11:16:05;;;;;;;1.83;1.70;;;24.50;43.30;;;;;;4891440;29;20483;-44
2023/07/20 11:18:40;;;;;;;3.50;1.80;;;24.50;43.40;;;;;;4931076;29;20985;-44
2023/07/20 11:21:12;;;;;;;2.80;1.90;;;24.50;43.40;;;;;;4929719;29;20480;-47
2023/07/20 11:23:41;;;;;;;2.20;2.00;;;24.50;43.50;;;;;;4938413;29;20441;-47
2023/07/20 11:26:11;;;;;;;2.30;1.90;;;24.50;43.40;;;;;;4942897;28;20502;-45
2023/07/20 11:28:39;;;;;;;3.30;1.80;;;24.50;43.00;;;;;;4952869;28;20505;-45
2023/07/20 11:31:07;;;;;;;2.43;1.80;;;24.50;43.30;;;;;;4939422;28;20528;-45
2023/07/20 11:33:36;;;;;;;2.63;2.37;;;24.50;43.10;;;;;;4932923;29;20814;-45
2023/07/20 11:36:06;;;;;;;3.00;2.53;;;24.50;43.20;;;;;;4935029;29;20561;-44
2023/07/20 11:38:41;;;;;;;2.77;2.20;;;24.50;43.20;;;;;;4954373;28;20464;-46
2023/07/20 11:41:10;;;;;;;2.63;2.43;;;24.50;43.40;;;;;;4951157;28;20574;-45
2023/07/20 11:43:40;;;;;;;2.27;2.13;;;24.60;43.20;;;;;;4940416;29;20451;-46
2023/07/20 11:46:08;;;;;;;2.00;1.90;;;24.50;43.20;;;;;;4935816;28;20568;-47
2023/07/20 11:48:37;;;;;;;1.83;1.73;;;24.50;43.20;;;;;;4948663;28;20487;-45
2023/07/20 11:51:05;;;;;;;3.50;2.23;;;24.50;43.20;;;;;;4942383;28;20472;-46
2023/07/20 11:53:34;;;;;;;1.83;1.73;;;24.50;43.30;;;;;;4938237;28;20455;-46
2023/07/20 11:56:04;;;;;;;2.30;2.00;;;24.50;43.20;;;;;;4940867;28;20467;-46
2023/07/20 11:58:33;;;;;;;4.53;2.23;;;24.50;44.40;;;;;;4939314;29;20483;-47
2023/07/20 12:01:02;;;;;;;3.60;1.80;;;24.50;42.70;;;;;;4921641;29;20596;-47
2023/07/20 12:03:31;;;;;;;2.47;2.03;;;24.60;42.70;;;;;;4939402;29;20459;-47
2023/07/20 12:06:09;;;;;;;2.43;1.97;;;24.60;42.30;;;;;;4956211;28;20884;-46
2023/07/20 12:08:40;;;;;;;1.80;1.70;;;24.60;42.40;;;;;;4955494;28;20448;-46
2023/07/20 12:11:10;;;;;;;1.73;1.63;;;24.60;42.40;;;;;;4936980;28;20917;-47
2023/07/20 12:13:40;;;;;;;2.33;2.13;;;24.60;42.10;;;;;;4952813;28;20436;-45
2023/07/20 12:16:11;;;;;;;3.00;2.27;;;24.60;41.70;;;;;;4937185;28;20472;-47
2023/07/20 12:18:40;;;;;;;2.60;2.40;;;24.60;41.60;;;;;;4951430;28;20963;-47
2023/07/20 12:21:11;;;;;;;3.07;2.17;;;24.60;41.40;;;;;;4944987;28;20481;-47
2023/07/20 12:23:41;;;;;;;1.80;1.70;;;24.70;41.30;;;;;;4933384;29;20455;-46
2023/07/20 12:26:11;;;;;;;2.70;2.30;;;24.70;40.80;;;;;;4941057;28;20544;-46
2023/07/20 12:28:41;;;;;;;2.67;2.10;;;24.70;41.60;;;;;;4945366;28;20446;-47
2023/07/20 12:31:13;;;;;;;2.37;1.80;;;24.90;39.40;;;;;;4953031;28;20218;-48
2023/07/20 12:33:42;;;;;;;2.70;1.90;;;25.10;38.40;;;;;;4958858;28;20449;-47
2023/07/20 12:36:11;;;;;;;2.17;1.97;;;25.20;37.20;;;;;;4947657;28;21007;-47
2023/07/20 12:38:41;;;;;;;1.60;1.50;;;25.10;37.00;;;;;;4943672;28;20455;-48
2023/07/20 12:41:13;;;;;;;2.73;2.20;;;25.20;36.90;;;;;;4954076;28;20585;-48
2023/07/20 12:43:42;;;;;;;2.30;2.10;;;25.10;36.90;;;;;;4941829;29;20866;-46
2023/07/20 12:46:12;;;;;;;2.87;2.10;;;25.10;37.30;;;;;;4956562;28;20464;-47
2023/07/20 12:48:43;;;;;;;2.27;1.70;;;25.10;36.90;;;;;;4954750;28;20466;-47
2023/07/20 12:51:15;;;;;;;2.50;1.97;;;25.10;36.30;;;;;;4944535;28;20486;-48
2023/07/20 12:53:45;;;;;;;2.03;1.93;;;25.00;36.40;;;;;;4938425;28;20507;-46
2023/07/20 12:56:15;;;;;;;1.93;1.73;;;25.00;37.10;;;;;;4947926;28;20844;-46
2023/07/20 12:58:49;;;;;;;2.93;1.93;;;24.90;37.80;;;;;;4951953;28;20797;-45
2023/07/20 13:01:17;;;;;;;1.80;1.60;;;24.70;38.40;;;;;;4943958;28;20855;-46
2023/07/20 13:03:46;;;;;;;5.07;2.20;;;24.50;39.10;;;;;;4936526;29;20451;-48
2023/07/20 13:06:17;;;;;;;3.20;1.53;;;24.50;39.10;;;;;;4946190;28;20520;-46
2023/07/20 13:08:50;;;;;;;2.50;1.80;;;24.40;39.30;;;;;;4941033;29;20514;-44
2023/07/20 13:11:22;;;;;;;2.00;1.83;;;24.50;39.70;;;;;;4940475;28;20501;-45
2023/07/20 13:13:51;;;;;;;1.67;1.57;;;24.50;39.80;;;;;;4940959;29;20446;-47
2023/07/20 13:16:22;;;;;;;2.60;2.40;;;24.50;40.00;;;;;;4947259;28;20495;-46
2023/07/20 13:18:51;;;;;;;2.30;1.73;;;24.50;40.10;;;;;;4944076;29;20455;-45
2023/07/20 13:21:22;;;;;;;3.13;1.53;;;24.50;40.00;;;;;;4942431;28;20479;-47
2023/07/20 13:23:52;;;;;;;1.80;1.67;;;24.50;40.10;;;;;;4940199;29;20479;-48
2023/07/20 13:26:22;;;;;;;3.30;2.20;;;24.50;40.10;;;;;;4940657;28;20466;-45
2023/07/20 13:28:50;;;;;;;2.23;1.47;;;24.50;40.30;;;;;;4930881;29;20469;-47